Terminal Aerodrome Forecast
Issued by NWS

Home | Current Version | Previous Version | Text Only | Print | Product List | Glossary On
Versions: 1 2 3 4 5 6 7 8 9 10 11 12 13 14 15 16 17
000
FTAK31 PAJN 182300
TAFASI
TAF
PASI 182320Z 1900/1924 12010G15KT P6SM -RA SCT025 OVC035
      WS020/15030KT
     FM190400 12015G25KT 6SM -RA BR BKN020 OVC030 WS020/15030KT
     FM191300 14015G25KT 5SM -RA BKN015 OVC030 WS020/15030KT=

USA.gov is the U.S. government's official web portal to all federal, state and local government web resources and services.